Weather observations for the past three days for
Cancun International Airport
| Date | Time (est) | Wind (mph) | Vis. (mi.) | Weather | Sky Cond. | Temperature (ºF) | Relative Humidity | Wind Chill (°F) | Heat Index (°F) | Pressure | Precipitation (in) | ||||||
|---|---|---|---|---|---|---|---|---|---|---|---|---|---|---|---|---|---|
| Air | Dwpt | 6 hour | altimeter (in) | sea level (mb) | 1 hr | 3 hr | 6 hr | ||||||||||
| Max. | Min. | ||||||||||||||||
| 04 | 11:43 | E 6 | 7.00 | Mostly Cloudy | BKN015TCU | 86 | 78.8 | 79% | 99 | 29.95 | 0.0 | ||||||
| 04 | 10:41 | E 6 | 6.00 | Mostly Cloudy | BKN015TCU | 84.2 | 78.8 | 84% | 96 | 29.97 | 0.0 | ||||||
| 04 | 09:44 | NW 3 | 6.00 | Mostly Cloudy | BKN015TCU | 82.4 | 80.6 | 94% | 94 | 29.96 | 1014.8 | ||||||
| 04 | 09:43 | W 3 | 6.00 | Mostly Cloudy | BKN015TCU | 82.4 | 80.6 | 94% | 94 | 29.96 | 0.0 | ||||||
| 04 | 08:42 | NW 3 | 2.50 | Fog/Mist | BKN005 | 80.6 | 80.6 | 100% | 89 | 29.96 | 0.0 | ||||||
| 04 | 08:40 | Calm | 2.50 | Fog/Mist | BKN005 | 80.6 | 80.6 | 100% | 89 | 29.96 | 0.0 | ||||||
| 04 | 07:43 | Calm | 0.50 | Fog | VV006 | 78.8 | 78.8 | 100% | 83 | 29.94 | 0.0 | ||||||
| 04 | 06:49 | NW 5 | 0.50 | Fog | BKN010 BKN250 | 78.8 | 77 | 94% | 83 | 29.93 | 1013.5 | ||||||
| 04 | 06:10 | N 2 | 0.50 | Fog | OVC008 | 77 | 77 | 100% | 78 | 29.93 | 0.0 | ||||||
| 04 | 06:02 | N 2 | 1.00 | Fog/Mist | OVC010 | 77 | 77 | 100% | 78 | 29.92 | 0.0 | ||||||
| 04 | 05:41 | N 2 | 6.00 | Mostly Cloudy | BKN015TCU BKN250 | 77 | 77 | 100% | 78 | 29.92 | 0.0 | ||||||
| 04 | 04:41 | Calm | 7.00 | Mostly Cloudy | SCT015TCU BKN250 | 78.8 | 77 | 94% | 83 | 29.91 | 0.0 | ||||||
| 04 | 03:41 | N 2 | 7.00 | Mostly Cloudy | SCT015TCU BKN250 | 78.8 | 78.8 | 100% | 83 | 29.91 | 1013.1 | ||||||
| 04 | 02:40 | Calm | 7.00 | Mostly Cloudy | FEW015TCU BKN250 | 78.8 | 78.8 | 100% | 83 | 29.92 | 0.0 | ||||||
| 04 | 01:40 | Calm | 7.00 | Mostly Cloudy | SCT015TCU BKN250 | 78.8 | 78.8 | 100% | 83 | 29.94 | 0.0 | ||||||
| 04 | 00:41 | Calm | 7.00 | Partly Cloudy | SCT250 | 78.8 | 78.8 | 100% | 83 | 29.96 | 1014.8 | ||||||
| 03 | 23:41 | SE 2 | 7.00 | Mostly Cloudy | FEW015TCU BKN250 | 80.6 | 78.8 | 94% | 88 | 29.97 | 0.0 | ||||||
| 03 | 22:40 | SE 2 | 7.00 | Partly Cloudy | FEW015TCU SCT250 | 80.6 | 78.8 | 94% | 88 | 29.97 | 0.0 | ||||||
| 03 | 21:47 | Calm | 7.00 | Mostly Cloudy | FEW015 BKN250 | 80.6 | 78.8 | 94% | 88 | 29.95 | 1014.3 | ||||||
| 03 | 20:44 | Calm | 7.00 | Overcast | SCT015 OVC250 | 80.6 | 78.8 | 94% | 88 | 29.93 | 0.0 | ||||||
| 03 | 19:41 | Calm | 7.00 | Overcast | SCT100 OVC250 | 82.4 | 78.8 | 89% | 92 | 29.92 | 0.0 | ||||||
| 03 | 18:43 | S 6 | 7.00 | Overcast | FEW015 SCT100 OVC250 | 82.4 | 80.6 | 94% | 94 | 29.9 | 1012.5 | ||||||
| 03 | 17:40 | S 7 | 7.00 | Overcast | SCT015TCU BKN100 OVC250 | 82.4 | 80.6 | 94% | 94 | 29.89 | 0.0 | ||||||
| 03 | 16:40 | SE 6 | 7.00 | Overcast | SCT015TCU BKN100 OVC250 | 82.4 | 80.6 | 94% | 94 | 29.91 | 0.0 | ||||||
| 03 | 16:15 | Calm | 6.00 | Light Rain | BKN015CB OVC100 | 80.6 | 78.8 | 94% | 88 | 29.91 | 0.0 | ||||||
| 03 | 15:41 | SE 6 | 4.00 | Thunderstorm Rain | BKN015CB OVC100 | 82.4 | 80.6 | 94% | 94 | 29.92 | 1013.2 | 10.25 | |||||
| 03 | 15:17 | SE 9 | 3.00 | Thunderstorm Heavy Rain | OVC006CB | 80.6 | 78.8 | 94% | 88 | 29.93 | 0.0 | ||||||
| 03 | 15:03 | S 7 | 2.00 | Thunderstorm Heavy Rain | OVC006CB | 84.2 | 78.8 | 84% | 96 | 29.92 | 0.0 | ||||||
| 03 | 14:43 | S 12 | 5.00 | Thunderstorm | BKN015CB OVC250 | 86 | 78.8 | 79% | 99 | 29.93 | 0.0 | ||||||
| 03 | 14:32 | SE 16 | 5.00 | Thunderstorm | BKN015CB OVC250 | 84.2 | 78.8 | 84% | 96 | 29.93 | 0.0 | ||||||
| 03 | 13:43 | SE 16 | 7.00 | Overcast | SCT015TCU OVC250 | 87.8 | 78.8 | 75% | 102 | 29.92 | 0.0 | ||||||
| 03 | 12:42 | S 9 | 7.00 | Overcast | SCT015TCU OVC250 | 86 | 77 | 75% | 97 | 29.95 | 1014.6 | ||||||
| 03 | 11:42 | SE 12 | 6.00 | Overcast | SCT015TCU OVC250 | 89.6 | 78.8 | 71% | 105 | 29.97 | 0.0 | ||||||
| 03 | 10:43 | SE 15 | 7.00 | Overcast | SCT015TCU OVC250 | 87.8 | 78.8 | 75% | 102 | 29.96 | 0.0 | ||||||
| 03 | 09:44 | SE 13 | 7.00 | Overcast | SCT015TCU OVC250 | 86 | 77 | 75% | 97 | 29.97 | 1014.9 | ||||||
| 03 | 08:45 | SE 6 | 7.00 | Mostly Cloudy | SCT015TCU BKN080 BKN250 | 84.2 | 77 | 79% | 94 | 29.96 | 0.0 | ||||||
| 03 | 07:41 | SE 3 | 7.00 | Overcast | BKN080 OVC250 | 82.4 | 78.8 | 89% | 92 | 29.94 | 0.0 | ||||||
| 03 | 06:40 | S 6 | 7.00 | Overcast | BKN090 OVC250 | 80.6 | 77 | 89% | 87 | 29.89 | 1012.3 | ||||||
| 03 | 05:42 | S 3 | 7.00 | Partly Cloudy | SCT250 | 80.6 | 77 | 89% | 87 | 29.88 | 0.0 | ||||||
| 03 | 04:40 | S 3 | 7.00 | A Few Clouds | FEW080 | 80.6 | 77 | 89% | 87 | 29.88 | 0.0 | ||||||
| 03 | 03:40 | S 3 | 7.00 | Partly Cloudy | SCT080 | 82.4 | 77 | 84% | 91 | 29.88 | 1012.0 | ||||||
| 03 | 02:41 | E 3 | 7.00 | Partly Cloudy | SCT070 | 82.4 | 78.8 | 89% | 92 | 29.89 | 0.0 | ||||||
| 03 | 01:40 | SE 6 | 7.00 | Partly Cloudy | SCT080 | 82.4 | 78.8 | 89% | 92 | 29.92 | 0.0 | ||||||
| 03 | 00:41 | SE 16 | 7.00 | Partly Cloudy | SCT080 | 82.4 | 78.8 | 89% | 92 | 29.91 | 1013.0 | ||||||
| 02 | 23:40 | S 9 | 7.00 | Partly Cloudy | SCT080 | 84.2 | 78.8 | 84% | 96 | 29.93 | 0.0 | ||||||
| 02 | 22:42 | SE 15 | 7.00 | Partly Cloudy | FEW015 SCT080 | 84.2 | 78.8 | 84% | 96 | 29.93 | 0.0 | ||||||
| 02 | 21:40 | S 7 | 7.00 | Partly Cloudy | SCT015 | 84.2 | 73.4 | 70% | 91 | 29.91 | 1012.8 | ||||||
| 02 | 20:40 | SE 12 | 7.00 | Mostly Cloudy | SCT015 SCT100 BKN250 | 84.2 | 78.8 | 84% | 96 | 29.88 | 0.0 | ||||||
| 02 | 19:42 | S 17 | 7.00 | Mostly Cloudy | FEW015 SCT100 BKN250 | 84.2 | 78.8 | 84% | 96 | 29.85 | 0.0 | ||||||
| 02 | 18:42 | SE 16 | 7.00 | Mostly Cloudy | FEW015 SCT100 BKN250 | 84.2 | 78.8 | 84% | 96 | 29.83 | 1010.0 | ||||||
| 02 | 17:45 | S 17 | 7.00 | Partly Cloudy | FEW015 SCT100 SCT250 | 84.2 | 78.8 | 84% | 96 | 29.82 | 0.0 | ||||||
| 02 | 16:47 | SE 16 | 7.00 | A Few Clouds | FEW015 | 87.8 | 78.8 | 75% | 102 | 29.81 | 0.0 | ||||||
| 02 | 15:41 | SE 20 | 7.00 | A Few Clouds | FEW015 | 87.8 | 77 | 70% | 100 | 29.83 | 1010.4 | ||||||
| 02 | 14:45 | SE 16 | 7.00 | Partly Cloudy | SCT015 | 89.6 | 77 | 67% | 103 | 29.83 | 0.0 | ||||||
| 02 | 13:40 | SE 23 | 7.00 | Partly Cloudy and Breezy | SCT015 | 89.6 | 75.2 | 63% | 100 | 29.84 | 0.0 | ||||||
| 02 | 12:45 | SE 13 | 7.00 | Partly Cloudy | SCT015 | 89.6 | 78.8 | 71% | 105 | 29.87 | 1011.6 | ||||||
| 02 | 11:40 | S 16 | 7.00 | Partly Cloudy | SCT015 | 89.6 | 75.2 | 63% | 100 | 29.89 | 0.0 | ||||||
| 02 | 10:43 | S 15 | 7.00 | Partly Cloudy | SCT015 | 87.8 | 77 | 70% | 100 | 29.89 | 0.0 | ||||||
| 02 | 09:44 | S 14 | 7.00 | Mostly Cloudy | BKN015 | 86 | 77 | 75% | 97 | 29.88 | 1011.8 | ||||||
| 02 | 08:44 | S 14 | 7.00 | Partly Cloudy | SCT015 | 86 | 77 | 75% | 97 | 29.87 | 0.0 | ||||||
| 02 | 07:54 | SE 16 | 7.00 | Partly Cloudy | SCT015 | 84.2 | 77 | 79% | 94 | 29.85 | 0.0 | ||||||
| 02 | 06:41 | SE 13 | 7.00 | Partly Cloudy | SCT015 | 82.4 | 77 | 84% | 91 | 29.83 | 1010.3 | ||||||
| 02 | 05:43 | S 12 | 7.00 | A Few Clouds | FEW015 | 82.4 | 77 | 84% | 91 | 29.82 | 0.0 | ||||||
| 02 | 04:40 | SE 13 | 7.00 | Clear | SKC | 82.4 | 77 | 84% | 91 | 29.81 | 0.0 | ||||||
| 02 | 03:40 | SE 10 | 7.00 | A Few Clouds | FEW015 | 82.4 | 77 | 84% | 91 | 29.81 | 1009.7 | ||||||
| 02 | 02:40 | SE 13 | 7.00 | A Few Clouds | FEW015 | 82.4 | 77 | 84% | 91 | 29.83 | 0.0 | ||||||
| 02 | 01:40 | SE 15 | 7.00 | A Few Clouds | FEW015 | 82.4 | 77 | 84% | 91 | 29.83 | 0.0 | ||||||
| 02 | 00:40 | SE 13 | 7.00 | Clear | SKC | 82.4 | 77 | 84% | 91 | 29.84 | 1010.6 | ||||||
| 01 | 23:44 | SE 13 | 7.00 | Clear | SKC | 82.4 | 77 | 84% | 91 | 29.86 | 0.0 | ||||||
| 01 | 22:41 | S 12 | 7.00 | Clear | SKC | 82.4 | 77 | 84% | 91 | 29.86 | 0.0 | ||||||
| 01 | 21:45 | SE 17 | 7.00 | Partly Cloudy | SCT015TCU | 82.4 | 77 | 84% | 91 | 29.85 | 1010.8 | ||||||
| 01 | 20:43 | S 14 | 7.00 | Partly Cloudy | SCT015TCU | 82.4 | 77 | 84% | 91 | 29.83 | 0.0 | ||||||
| 01 | 19:42 | SE 14 | 7.00 | Mostly Cloudy | BKN015 | 82.4 | 77 | 84% | 91 | 29.8 | 0.0 | ||||||
| 01 | 18:43 | SE 16 | 7.00 | Mostly Cloudy | BKN015TCU | 84.2 | 77 | 79% | 94 | 29.78 | 1008.8 | ||||||
| 01 | 17:40 | S 16 | 7.00 | Mostly Cloudy | BKN015 | 84.2 | 77 | 79% | 94 | 29.78 | 0.0 | ||||||
| 01 | 16:40 | S 16 | 7.00 | Partly Cloudy | SCT015 | 86 | 77 | 75% | 97 | 29.77 | 0.0 | ||||||
| 01 | 15:41 | S 17 | 7.00 | Partly Cloudy | SCT015 | 87.8 | 77 | 70% | 100 | 29.79 | 1009.1 | ||||||
| 01 | 14:44 | SE 16 | 7.00 | Mostly Cloudy | BKN015 | 87.8 | 77 | 70% | 100 | 29.82 | 0.0 | ||||||
| 01 | 13:46 | S 14 | 7.00 | Partly Cloudy | SCT015 | 87.8 | 75.2 | 66% | 98 | 29.84 | 0.0 | ||||||
| 01 | 12:53 | S 16 | 7.00 | Partly Cloudy | SCT015 | 87.8 | 77 | 70% | 100 | 29.85 | 1011.2 | ||||||
| Date | Time (est) | Wind (mph) | Vis. (mi.) | Weather | Sky Cond. | Air | Dwpt | Max. | Min. | Relative Humidity | Wind Chill (°F) | Heat Index (°F) | altimeter (in) | sea level (mb) | 1 hr | 3 hr | 6 hr |
| 6 hour | |||||||||||||||||
| Temperature (ºF) | Pressure | Precipitation (in) | |||||||||||||||